createdAt,value
2019-01-30T00:00:02.347Z,1.00
2019-01-30T00:02:32.599Z,1.00
2019-01-30T00:05:02.877Z,1.10
2019-01-30T00:07:33.137Z,0.90
2019-01-30T00:10:04.184Z,1.00
2019-01-30T00:12:34.826Z,0.70
2019-01-30T00:15:07.598Z,0.90
2019-01-30T00:17:38.390Z,1.00
2019-01-30T00:20:08.711Z,0.90
2019-01-30T00:22:38.985Z,0.90
2019-01-30T00:25:09.782Z,0.90
2019-01-30T00:27:39.993Z,0.90
2019-01-30T00:30:11.692Z,0.90
2019-01-30T00:32:41.952Z,0.70
2019-01-30T00:35:12.505Z,0.90
2019-01-30T00:37:43.141Z,0.80
2019-01-30T00:40:13.576Z,0.80
2019-01-30T00:42:43.755Z,0.60
2019-01-30T00:45:14.703Z,0.80
2019-01-30T00:47:45.308Z,0.60
2019-01-30T00:50:15.701Z,0.90
2019-01-30T00:52:45.949Z,0.90
2019-01-30T00:55:16.829Z,0.80
2019-01-30T00:57:47.144Z,1.00
2019-01-30T01:00:22.342Z,1.00
2019-01-30T01:02:53.001Z,0.90
2019-01-30T01:05:23.266Z,0.90
2019-01-30T01:07:53.654Z,0.90
2019-01-30T01:10:24.155Z,0.80
2019-01-30T01:12:54.773Z,1.00
2019-01-30T01:15:25.041Z,0.80
2019-01-30T01:17:55.299Z,0.80
2019-01-30T01:20:25.883Z,0.80
2019-01-30T01:22:56.139Z,1.00
2019-01-30T01:25:26.366Z,0.70
2019-01-30T01:27:56.632Z,1.00
2019-01-30T01:30:27.663Z,0.70
2019-01-30T01:32:57.908Z,1.00
2019-01-30T01:35:28.174Z,0.80
2019-01-30T01:37:58.453Z,0.80
2019-01-30T01:40:28.704Z,0.60
2019-01-30T01:42:59.422Z,0.60
2019-01-30T01:45:29.717Z,0.80
2019-01-30T01:48:00.211Z,0.90
2019-01-30T01:50:30.439Z,0.50
2019-01-30T01:53:01.143Z,0.90
2019-01-30T01:55:31.722Z,1.00
2019-01-30T01:58:02.967Z,0.70
2019-01-30T02:00:35.519Z,0.70
2019-01-30T02:03:06.107Z,0.70
2019-01-30T02:05:36.308Z,0.80
2019-01-30T02:08:06.764Z,0.90
2019-01-30T02:10:37.070Z,0.80
2019-01-30T02:13:07.600Z,0.70
2019-01-30T02:15:37.762Z,0.90
2019-01-30T02:18:08.613Z,0.60
2019-01-30T02:20:39.282Z,0.80
2019-01-30T02:23:09.572Z,0.90
2019-01-30T02:25:39.784Z,0.70
2019-01-30T02:28:10.011Z,0.60
2019-01-30T02:30:47.083Z,0.60
2019-01-30T02:33:12.163Z,0.80
2019-01-30T02:35:42.729Z,0.90
2019-01-30T02:38:13.600Z,0.80
2019-01-30T02:40:44.321Z,0.80
2019-01-30T02:43:15.125Z,0.90
2019-01-30T02:45:45.578Z,0.70
2019-01-30T02:48:16.136Z,0.50
2019-01-30T02:50:46.328Z,0.70
2019-01-30T02:53:16.885Z,0.80
2019-01-30T02:55:47.432Z,0.80
2019-01-30T02:58:17.651Z,0.90
2019-01-30T03:00:58.522Z,0.70
2019-01-30T03:03:19.785Z,0.80
2019-01-30T03:05:50.047Z,0.90
2019-01-30T03:08:20.283Z,0.70
2019-01-30T03:10:50.974Z,0.90
2019-01-30T03:13:21.287Z,0.70
2019-01-30T03:15:51.519Z,0.90
2019-01-30T03:18:21.721Z,0.60
2019-01-30T03:20:51.868Z,0.90
2019-01-30T03:23:22.126Z,0.60
2019-01-30T03:25:52.399Z,0.70
2019-01-30T03:28:22.612Z,0.60
2019-01-30T03:30:53.234Z,0.40
2019-01-30T03:33:23.535Z,0.60
2019-01-30T03:35:54.122Z,0.50
2019-01-30T03:38:24.792Z,0.60
2019-01-30T03:40:55.067Z,0.50
2019-01-30T03:43:25.369Z,0.80
2019-01-30T03:45:55.866Z,0.80
2019-01-30T03:48:26.660Z,0.80
2019-01-30T03:50:56.928Z,0.80
2019-01-30T03:53:27.522Z,0.80
2019-01-30T03:55:57.781Z,0.80
2019-01-30T03:58:27.992Z,0.90
2019-01-30T04:00:58.270Z,0.70
2019-01-30T04:03:28.504Z,0.70
2019-01-30T04:05:58.828Z,0.70
2019-01-30T04:11:16.696Z,0.70
2019-01-30T04:13:47.560Z,0.70
2019-01-30T04:16:17.897Z,0.70
2019-01-30T04:18:48.120Z,0.70
2019-01-30T04:21:18.374Z,0.90
2019-01-30T04:23:48.594Z,0.90
2019-01-30T04:26:19.457Z,1.00
2019-01-30T04:28:49.673Z,0.90
2019-01-30T04:31:19.904Z,0.90
2019-01-30T04:33:50.263Z,0.80
2019-01-30T04:36:20.562Z,1.10
2019-01-30T04:38:50.804Z,0.80
2019-01-30T04:41:21.147Z,1.10
2019-01-30T04:43:51.736Z,0.80
2019-01-30T04:46:21.959Z,1.00
2019-01-30T04:48:52.152Z,0.90
2019-01-30T04:51:22.396Z,0.90
2019-01-30T04:53:52.596Z,0.80
2019-01-30T04:56:23.214Z,1.00
2019-01-30T04:58:53.851Z,1.10
2019-01-30T05:01:24.159Z,0.80
2019-01-30T05:03:54.380Z,1.10
2019-01-30T05:06:24.679Z,0.80
2019-01-30T05:08:56.025Z,0.80
2019-01-30T05:11:26.380Z,1.00
2019-01-30T05:13:56.893Z,0.90
2019-01-30T05:16:27.141Z,0.80
2019-01-30T05:18:57.358Z,1.00
2019-01-30T05:21:27.887Z,0.80
2019-01-30T05:23:58.473Z,1.00
2019-01-30T05:26:28.800Z,1.00
2019-01-30T05:28:59.388Z,0.80
2019-01-30T05:31:31.463Z,0.80
2019-01-30T05:34:01.963Z,0.80
2019-01-30T05:36:32.182Z,0.80
2019-01-30T05:39:02.503Z,0.80
2019-01-30T05:41:32.713Z,0.70
2019-01-30T05:44:02.949Z,0.90
2019-01-30T05:46:33.068Z,1.00
2019-01-30T05:49:03.446Z,0.80
2019-01-30T05:51:33.669Z,1.10
2019-01-30T05:54:04.253Z,0.90
2019-01-30T05:56:34.523Z,1.10
2019-01-30T05:59:04.743Z,0.80
2019-01-30T06:01:35.045Z,1.00
2019-01-30T06:04:05.582Z,0.90
2019-01-30T06:06:35.756Z,1.00
2019-01-30T06:09:07.925Z,1.00
2019-01-30T06:11:38.554Z,1.00
2019-01-30T06:14:08.842Z,1.00
2019-01-30T06:16:39.150Z,1.00
2019-01-30T06:19:09.395Z,0.80
2019-01-30T06:21:39.610Z,1.00
2019-01-30T06:24:09.912Z,0.80
2019-01-30T06:26:40.823Z,1.10
2019-01-30T06:29:11.492Z,0.90
2019-01-30T06:31:42.023Z,1.00
2019-01-30T06:34:12.258Z,0.80
2019-01-30T06:36:42.430Z,1.10
2019-01-30T06:39:12.683Z,0.90
2019-01-30T06:41:43.897Z,0.80
2019-01-30T06:44:14.659Z,0.70
2019-01-30T06:46:45.471Z,0.90
2019-01-30T06:49:15.731Z,0.90
2019-01-30T06:51:45.934Z,1.10
2019-01-30T06:54:16.566Z,0.90
2019-01-30T06:56:46.909Z,1.00
2019-01-30T06:59:17.127Z,1.00
2019-01-30T07:01:47.631Z,0.90
2019-01-30T07:04:17.872Z,1.00
2019-01-30T07:06:48.543Z,0.90
2019-01-30T07:09:22.599Z,0.90
2019-01-30T07:11:52.815Z,0.90
2019-01-30T07:14:23.374Z,0.80
2019-01-30T07:16:53.665Z,1.00
2019-01-30T07:19:23.948Z,0.80
2019-01-30T07:21:54.447Z,1.00
2019-01-30T07:24:25.016Z,0.80
2019-01-30T07:26:55.451Z,1.00
2019-01-30T07:29:25.690Z,1.00
2019-01-30T07:31:55.938Z,0.90
2019-01-30T07:34:26.189Z,0.90
2019-01-30T07:36:56.727Z,0.90
2019-01-30T07:39:27.691Z,0.90
2019-01-30T07:41:58.194Z,1.00
2019-01-30T07:44:28.437Z,1.00
2019-01-30T07:47:00.545Z,1.00
2019-01-30T07:49:30.482Z,1.20
2019-01-30T07:52:00.634Z,0.90
2019-01-30T07:54:31.090Z,0.90
2019-01-30T07:57:01.391Z,1.10
2019-01-30T07:59:32.209Z,0.80
2019-01-30T08:02:02.405Z,1.10
2019-01-30T08:04:32.781Z,0.80
2019-01-30T08:07:03.214Z,1.00
2019-01-30T08:09:33.474Z,1.00
2019-01-30T08:12:03.759Z,1.00
2019-01-30T08:14:33.988Z,0.90
2019-01-30T08:17:04.852Z,1.10
2019-01-30T08:19:35.492Z,0.90
2019-01-30T08:22:06.128Z,0.90
2019-01-30T08:24:38.254Z,0.70
2019-01-30T08:27:09.227Z,1.10
2019-01-30T08:29:39.919Z,0.90
2019-01-30T08:32:10.582Z,0.90
2019-01-30T08:34:41.216Z,0.90
2019-01-30T08:37:11.780Z,1.20
2019-01-30T08:39:42.440Z,0.90
2019-01-30T08:42:12.754Z,0.90
2019-01-30T08:44:47.146Z,0.90
2019-01-30T08:47:15.229Z,0.90
2019-01-30T08:49:45.506Z,1.10
2019-01-30T08:52:15.784Z,1.30
2019-01-30T08:54:46.408Z,1.10
2019-01-30T08:57:16.818Z,1.00
2019-01-30T08:59:47.010Z,0.90
2019-01-30T09:02:17.278Z,0.90
2019-01-30T09:04:47.493Z,1.10
2019-01-30T09:07:17.740Z,1.30
2019-01-30T09:09:48.366Z,1.10
2019-01-30T09:12:18.546Z,1.20
2019-01-30T09:14:48.784Z,1.30
2019-01-30T09:17:18.979Z,1.00
2019-01-30T09:19:49.622Z,1.10
2019-01-30T09:22:19.830Z,1.20
2019-01-30T09:24:50.065Z,1.00
2019-01-30T09:27:20.299Z,1.10
2019-01-30T09:29:50.924Z,1.00
2019-01-30T09:32:21.478Z,1.10
2019-01-30T09:34:52.253Z,1.40
2019-01-30T09:37:22.488Z,1.10
2019-01-30T09:39:52.699Z,1.40
2019-01-30T09:42:23.278Z,1.30
2019-01-30T09:44:53.921Z,1.50
2019-01-30T09:47:24.451Z,1.50
2019-01-30T09:49:54.712Z,1.40
2019-01-30T09:52:26.929Z,1.30
2019-01-30T09:54:57.090Z,1.30
2019-01-30T09:57:27.303Z,1.50
2019-01-30T09:59:57.922Z,1.50
2019-01-30T10:02:28.137Z,1.60
2019-01-30T10:04:58.329Z,1.30
2019-01-30T10:07:28.989Z,1.40
2019-01-30T10:09:59.174Z,1.50
2019-01-30T10:12:29.364Z,1.60
2019-01-30T10:14:59.610Z,1.50
2019-01-30T10:17:31.099Z,1.50
2019-01-30T10:20:01.778Z,1.70
2019-01-30T10:22:32.726Z,1.40
2019-01-30T10:25:02.971Z,1.80
2019-01-30T10:27:33.216Z,1.70
2019-01-30T10:30:03.558Z,1.40
2019-01-30T10:32:33.812Z,1.60
2019-01-30T10:35:04.232Z,1.30
2019-01-30T10:37:34.692Z,1.30
2019-01-30T10:40:06.264Z,1.60
2019-01-30T10:42:36.414Z,1.30
2019-01-30T10:45:07.566Z,1.40
2019-01-30T10:47:37.712Z,1.70
2019-01-30T10:50:09.670Z,1.90
2019-01-30T10:52:39.846Z,1.70
2019-01-30T10:55:12.976Z,1.80
2019-01-30T10:57:43.728Z,1.70
2019-01-30T11:00:17.641Z,1.70
2019-01-30T11:02:48.400Z,1.70
2019-01-30T11:05:18.659Z,1.90
2019-01-30T11:07:48.812Z,2.00
2019-01-30T11:10:19.700Z,1.70
2019-01-30T11:12:49.946Z,1.90
2019-01-30T11:15:21.149Z,2.00
2019-01-30T11:17:51.679Z,2.00
2019-01-30T11:20:22.750Z,2.10
2019-01-30T11:22:53.667Z,2.10
2019-01-30T11:25:27.868Z,2.20
2019-01-30T11:27:58.868Z,2.20
2019-01-30T11:30:29.310Z,2.00
2019-01-30T11:33:00.107Z,2.30
2019-01-30T11:35:30.322Z,2.10
2019-01-30T11:38:00.879Z,2.40
2019-01-30T11:40:31.446Z,2.40
2019-01-30T11:43:01.674Z,2.20
2019-01-30T11:45:34.523Z,2.30
2019-01-30T11:48:05.225Z,2.60
2019-01-30T11:50:36.111Z,2.60
2019-01-30T11:53:06.731Z,2.50
2019-01-30T11:55:38.888Z,2.50
2019-01-30T11:58:09.886Z,2.80
2019-01-30T12:00:46.482Z,3.00
2019-01-30T12:03:16.648Z,3.10
2019-01-30T12:05:47.973Z,3.20
2019-01-30T12:08:18.291Z,3.50
2019-01-30T12:10:48.526Z,3.60
2019-01-30T12:13:18.778Z,3.50
2019-01-30T12:15:49.277Z,3.10
2019-01-30T12:18:19.546Z,3.40
2019-01-30T12:20:51.825Z,3.30
2019-01-30T12:23:22.273Z,3.40
2019-01-30T12:25:52.536Z,3.40
2019-01-30T12:28:23.129Z,3.30
2019-01-30T12:30:53.422Z,3.40
2019-01-30T12:33:23.572Z,3.20
2019-01-30T12:35:54.078Z,3.20
2019-01-30T12:38:24.534Z,3.20
2019-01-30T12:40:55.350Z,3.20
2019-01-30T12:43:25.656Z,3.10
2019-01-30T12:45:55.934Z,3.10
2019-01-30T12:48:26.165Z,3.20
2019-01-30T12:50:56.760Z,3.10
2019-01-30T12:53:27.393Z,3.00
2019-01-30T12:55:57.544Z,3.40
2019-01-30T12:58:27.765Z,3.20
2019-01-30T13:00:57.975Z,3.20
2019-01-30T13:03:28.174Z,3.30
2019-01-30T13:05:59.112Z,3.20
2019-01-30T13:08:29.278Z,3.40
2019-01-30T13:10:59.516Z,3.50
2019-01-30T13:13:29.838Z,3.20
2019-01-30T13:16:00.122Z,3.40
2019-01-30T13:18:30.296Z,3.30
2019-01-30T13:21:00.530Z,3.10
2019-01-30T13:23:30.731Z,3.10
2019-01-30T13:26:00.964Z,3.30
2019-01-30T13:28:31.694Z,3.20
2019-01-30T13:31:02.339Z,3.50
2019-01-30T13:33:32.617Z,3.10
2019-01-30T13:36:02.878Z,3.20
2019-01-30T13:38:33.223Z,3.00
2019-01-30T13:41:03.823Z,3.00
2019-01-30T13:43:34.501Z,3.20
2019-01-30T13:46:05.739Z,3.00
2019-01-30T13:48:36.127Z,3.00
2019-01-30T13:51:06.715Z,3.00
2019-01-30T13:53:39.958Z,2.80
2019-01-30T13:56:10.219Z,2.60
2019-01-30T13:58:42.727Z,2.90
2019-01-30T14:01:17.568Z,2.90
2019-01-30T14:03:45.267Z,3.00
2019-01-30T14:06:15.483Z,2.90
2019-01-30T14:08:45.711Z,2.90
2019-01-30T14:11:15.925Z,2.70
2019-01-30T14:13:46.288Z,2.90
2019-01-30T14:16:16.572Z,3.00
2019-01-30T14:18:46.769Z,2.70
2019-01-30T14:21:17.058Z,2.70
2019-01-30T14:23:47.376Z,2.70
2019-01-30T14:26:17.590Z,2.60
2019-01-30T14:28:47.885Z,2.80
2019-01-30T14:31:18.059Z,2.70
2019-01-30T14:33:48.300Z,2.90
2019-01-30T14:36:18.774Z,2.90
2019-01-30T14:38:49.067Z,2.80
2019-01-30T14:41:19.256Z,3.20
2019-01-30T14:43:49.501Z,2.90
2019-01-30T14:46:19.744Z,2.80
2019-01-30T14:48:50.033Z,2.90
2019-01-30T14:51:20.335Z,2.70
2019-01-30T14:53:51.185Z,2.90
2019-01-30T14:56:22.036Z,3.10
2019-01-30T14:58:52.260Z,2.90
2019-01-30T15:01:22.538Z,2.90
2019-01-30T15:03:52.793Z,2.80
2019-01-30T15:06:23.265Z,2.70
2019-01-30T15:08:53.564Z,2.70
2019-01-30T15:11:23.905Z,2.80
2019-01-30T15:13:54.171Z,2.50
2019-01-30T15:16:24.398Z,2.50
2019-01-30T15:18:54.618Z,2.70
2019-01-30T15:21:24.944Z,2.60
2019-01-30T15:23:55.580Z,2.70
2019-01-30T15:26:25.828Z,2.70
2019-01-30T15:28:56.237Z,2.50
2019-01-30T15:31:26.865Z,2.40
2019-01-30T15:33:57.194Z,2.70
2019-01-30T15:36:27.449Z,2.50
2019-01-30T15:38:57.695Z,2.30
2019-01-30T15:41:27.936Z,2.40
2019-01-30T15:43:58.922Z,2.10
2019-01-30T15:46:29.636Z,2.20
2019-01-30T15:49:00.935Z,1.90
2019-01-30T15:51:31.299Z,2.10
2019-01-30T15:54:01.765Z,1.90
2019-01-30T15:56:32.024Z,2.10
2019-01-30T15:59:02.287Z,2.20
2019-01-30T16:01:44.121Z,2.10
2019-01-30T16:04:17.633Z,2.00
2019-01-30T16:06:46.606Z,2.10
2019-01-30T16:09:17.010Z,2.00
2019-01-30T16:11:47.233Z,2.20
2019-01-30T16:14:17.973Z,2.10
2019-01-30T16:16:48.334Z,2.20
2019-01-30T16:19:19.033Z,2.30
2019-01-30T16:21:49.634Z,2.00
2019-01-30T16:24:20.137Z,2.20
2019-01-30T16:26:50.406Z,1.90
2019-01-30T16:29:20.679Z,1.90
2019-01-30T16:31:51.311Z,1.90
2019-01-30T16:34:21.872Z,1.80
2019-01-30T16:36:52.129Z,2.00
2019-01-30T16:39:22.366Z,1.80
2019-01-30T16:41:53.032Z,1.70
2019-01-30T16:44:23.226Z,1.70
2019-01-30T16:46:53.897Z,1.70
2019-01-30T16:49:24.279Z,1.70
2019-01-30T16:51:54.459Z,1.70
2019-01-30T16:54:24.767Z,1.40
2019-01-30T16:56:54.950Z,1.30
2019-01-30T16:59:25.624Z,1.60
2019-01-30T17:01:55.891Z,1.30
2019-01-30T17:04:26.162Z,1.10
2019-01-30T17:06:56.822Z,1.10
2019-01-30T17:09:27.691Z,1.30
2019-01-30T17:11:57.873Z,1.30
2019-01-30T17:14:27.992Z,1.20
2019-01-30T17:16:58.492Z,1.20
2019-01-30T17:19:29.080Z,1.00
2019-01-30T17:21:59.266Z,1.10
2019-01-30T17:24:29.580Z,1.00
2019-01-30T17:27:00.050Z,1.00
2019-01-30T17:29:30.596Z,1.20
2019-01-30T17:32:00.754Z,1.10
2019-01-30T17:34:30.956Z,1.10
2019-01-30T17:37:01.452Z,0.90
2019-01-30T17:39:32.262Z,1.10
2019-01-30T17:42:02.504Z,1.20
2019-01-30T17:44:32.686Z,1.00
2019-01-30T17:47:03.018Z,1.20
2019-01-30T17:49:33.732Z,1.10
2019-01-30T17:52:03.979Z,1.20
2019-01-30T17:54:34.555Z,1.10
2019-01-30T17:57:04.709Z,1.20
2019-01-30T17:59:34.925Z,1.00
2019-01-30T18:02:06.721Z,0.90
2019-01-30T18:04:37.310Z,0.80
2019-01-30T18:07:07.858Z,0.60
2019-01-30T18:09:38.389Z,0.40
2019-01-30T18:12:08.653Z,0.40
2019-01-30T18:14:39.249Z,0.40
2019-01-30T18:17:09.587Z,0.60
2019-01-30T18:19:39.809Z,0.40
2019-01-30T18:22:10.129Z,0.50
2019-01-30T18:24:40.426Z,0.40
2019-01-30T18:27:10.777Z,0.50
2019-01-30T18:29:41.055Z,0.70
2019-01-30T18:32:11.705Z,0.60
2019-01-30T18:34:41.954Z,0.50
2019-01-30T18:37:12.742Z,0.60
2019-01-30T18:39:43.405Z,0.50
2019-01-30T18:42:14.111Z,0.70
2019-01-30T18:44:44.915Z,0.50
2019-01-30T18:47:15.174Z,0.40
2019-01-30T18:49:45.661Z,0.50
2019-01-30T18:52:15.988Z,0.60
2019-01-30T18:54:46.594Z,0.50
2019-01-30T18:57:16.922Z,0.80
2019-01-30T18:59:47.137Z,0.80
2019-01-30T19:02:17.442Z,0.40
2019-01-30T19:04:47.738Z,0.40
2019-01-30T19:07:18.313Z,0.50
2019-01-30T19:09:48.498Z,0.60
2019-01-30T19:12:19.284Z,0.40
2019-01-30T19:14:49.505Z,0.80
2019-01-30T19:17:19.666Z,0.50
2019-01-30T19:19:49.851Z,0.60
2019-01-30T19:22:20.570Z,0.40
2019-01-30T19:24:50.815Z,0.60
2019-01-30T19:27:21.366Z,0.40
2019-01-30T19:29:51.600Z,0.40
2019-01-30T19:32:22.085Z,0.20
2019-01-30T19:34:52.289Z,0.20
2019-01-30T19:37:22.891Z,0.50
2019-01-30T19:39:53.117Z,0.10
2019-01-30T19:42:23.675Z,0.40
2019-01-30T19:44:54.164Z,0.40
2019-01-30T19:47:24.651Z,0.30
2019-01-30T19:49:54.936Z,0.10
2019-01-30T19:52:25.187Z,0.10
2019-01-30T19:54:55.746Z,0.20
2019-01-30T19:57:25.868Z,0.20
2019-01-30T19:59:56.406Z,0.10
2019-01-30T20:02:26.974Z,0.00
2019-01-30T20:04:57.159Z,0.30
2019-01-30T20:07:27.661Z,0.10
2019-01-30T20:09:58.241Z,0.30
2019-01-30T20:12:28.845Z,-0.10
2019-01-30T20:14:59.063Z,0.00
2019-01-30T20:17:29.291Z,0.00
2019-01-30T20:19:59.500Z,0.10
2019-01-30T20:22:30.000Z,0.00
2019-01-30T20:25:00.319Z,0.40
2019-01-30T20:27:30.552Z,0.50
2019-01-30T20:30:01.025Z,0.50
2019-01-30T20:32:31.233Z,0.10
2019-01-30T20:35:01.682Z,-0.10
2019-01-30T20:37:31.947Z,0.20
2019-01-30T20:40:02.221Z,0.40
2019-01-30T20:42:33.021Z,0.30
2019-01-30T20:45:03.219Z,0.70
2019-01-30T20:47:33.533Z,0.50
2019-01-30T20:50:04.055Z,0.50
2019-01-30T20:52:34.240Z,0.30
2019-01-30T20:55:05.190Z,0.50
2019-01-30T20:57:35.378Z,0.20
2019-01-30T21:00:08.696Z,0.30
2019-01-30T21:02:38.953Z,0.20
2019-01-30T21:05:09.873Z,0.30
2019-01-30T21:07:40.114Z,0.40
2019-01-30T21:10:13.485Z,0.70
2019-01-30T21:12:43.727Z,0.50
2019-01-30T21:15:15.280Z,0.50
2019-01-30T21:17:45.513Z,0.30
2019-01-30T21:20:15.794Z,0.00
2019-01-30T21:22:46.138Z,-0.20
2019-01-30T21:25:18.533Z,-0.20
2019-01-30T21:27:49.274Z,-0.20
2019-01-30T21:30:25.036Z,-0.30
2019-01-30T21:32:55.240Z,-0.10
2019-01-30T21:35:26.108Z,0.20
2019-01-30T21:37:56.335Z,-0.10
2019-01-30T21:40:26.540Z,0.20
2019-01-30T21:42:56.794Z,0.20
2019-01-30T21:45:27.457Z,0.60
2019-01-30T21:47:57.672Z,0.50
2019-01-30T21:50:28.248Z,0.60
2019-01-30T21:52:58.804Z,0.40
2019-01-30T21:55:29.386Z,0.30
2019-01-30T21:57:59.553Z,0.20
2019-01-30T22:00:30.402Z,0.20
2019-01-30T22:03:01.030Z,0.20
2019-01-30T22:05:31.397Z,0.40
2019-01-30T22:08:02.301Z,0.10
2019-01-30T22:10:32.620Z,-0.20
2019-01-30T22:13:03.169Z,0.00
2019-01-30T22:15:33.306Z,0.10
2019-01-30T22:18:03.819Z,0.10
2019-01-30T22:20:34.729Z,0.20
2019-01-30T22:23:05.039Z,0.00
2019-01-30T22:25:35.622Z,0.30
2019-01-30T22:28:05.962Z,0.30
2019-01-30T22:30:36.575Z,0.10
2019-01-30T22:33:07.519Z,-0.30
2019-01-30T22:35:37.727Z,0.00
2019-01-30T22:38:12.436Z,0.00
2019-01-30T22:40:39.901Z,0.00
2019-01-30T22:43:10.524Z,-0.30
2019-01-30T22:45:40.737Z,-0.20
2019-01-30T22:48:11.326Z,-0.50
2019-01-30T22:50:41.641Z,-0.60
2019-01-30T22:53:11.856Z,-0.20
2019-01-30T22:55:42.356Z,-0.50
2019-01-30T22:58:13.103Z,-0.50
2019-01-30T23:01:11.558Z,-0.40
2019-01-30T23:04:23.034Z,-0.80
2019-01-30T23:07:02.344Z,-0.60
2019-01-30T23:10:02.048Z,-0.20
2019-01-30T23:12:59.944Z,-0.50
2019-01-30T23:15:58.454Z,-0.50
2019-01-30T23:18:59.902Z,-0.60
2019-01-30T23:21:35.642Z,-0.60
2019-01-30T23:25:04.752Z,-0.50
2019-01-30T23:28:03.422Z,-0.50
2019-01-30T23:31:17.864Z,-0.60
2019-01-30T23:34:34.492Z,-0.40
2019-01-30T23:37:49.410Z,-0.60
2019-01-30T23:40:50.701Z,-0.60
2019-01-30T23:43:35.806Z,-0.60
2019-01-30T23:46:21.738Z,-0.50
2019-01-30T23:49:03.904Z,-0.40
2019-01-30T23:52:02.767Z,-0.40
2019-01-30T23:55:26.020Z,-0.40
2019-01-30T23:58:37.521Z,-0.40
